Fieldale, Virginia
Current Conditions -  °F | °C
As of 11:15 AM on Wednesday 22 Oct 2014 (Local Time) from KMTV Reporting Station
Clear Clear  
Wind Chill: 59°   Ceiling: Unl
Heat Index: 59°   Visibility: 10mi
Dew Point: 41°   Wind: 13mph
Humidity: 52%   Direction: 350°N
Pressure: 30.08"   Gusts: 22mph
Location:  36.7°N, 79.94°W
Report Text: KMTV 221515Z AUTO 35011G19KT 10SM CLR 15/05 A3008 RMK AO2 T01480049
Loading
Personal Weather Stations






























Interactive Weather Map
Tropical Storm Tracking
New forecast layout! Learn more

10-Day Weather Forecast

Advertisements
Track Severe Weather on mobile